sensor_id;sensor_type;location;lat;lon;timestamp;P1;durP1;ratioP1;P2;durP2;ratioP2
20232;SDS011;37438;55.674;13.074;2022-07-03T00:02:13;5.63;;;2.13;;
20232;SDS011;37438;55.674;13.074;2022-07-03T00:05:17;2.53;;;1.80;;
20232;SDS011;37438;55.674;13.074;2022-07-03T00:08:22;1.73;;;1.30;;
20232;SDS011;37438;55.674;13.074;2022-07-03T00:11:26;4.40;;;1.83;;
20232;SDS011;37438;55.674;13.074;2022-07-03T00:14:30;4.03;;;1.45;;
20232;SDS011;37438;55.674;13.074;2022-07-03T00:17:36;6.05;;;1.40;;
20232;SDS011;37438;55.674;13.074;2022-07-03T00:20:45;3.30;;;1.58;;
20232;SDS011;37438;55.674;13.074;2022-07-03T00:27:02;5.32;;;1.63;;
20232;SDS011;37438;55.674;13.074;2022-07-03T00:30:11;4.70;;;1.98;;
20232;SDS011;37438;55.674;13.074;2022-07-03T00:33:16;3.03;;;1.83;;
20232;SDS011;37438;55.674;13.074;2022-07-03T00:36:22;3.63;;;2.40;;
20232;SDS011;37438;55.674;13.074;2022-07-03T00:39:28;3.42;;;2.03;;
20232;SDS011;37438;55.674;13.074;2022-07-03T00:42:34;4.47;;;2.10;;
20232;SDS011;37438;55.674;13.074;2022-07-03T00:45:43;3.25;;;2.03;;
20232;SDS011;37438;55.674;13.074;2022-07-03T00:48:51;5.40;;;2.45;;
20232;SDS011;37438;55.674;13.074;2022-07-03T00:51:57;3.28;;;2.05;;
20232;SDS011;37438;55.674;13.074;2022-07-03T00:55:07;6.03;;;2.90;;
20232;SDS011;37438;55.674;13.074;2022-07-03T00:58:16;6.30;;;2.30;;
20232;SDS011;37438;55.674;13.074;2022-07-03T01:01:22;6.00;;;2.50;;
20232;SDS011;37438;55.674;13.074;2022-07-03T01:14:56;5.25;;;1.80;;
20232;SDS011;37438;55.674;13.074;2022-07-03T01:18:13;3.70;;;2.33;;
20232;SDS011;37438;55.674;13.074;2022-07-03T01:21:34;5.03;;;2.50;;
20232;SDS011;37438;55.674;13.074;2022-07-03T01:28:16;5.32;;;2.83;;
20232;SDS011;37438;55.674;13.074;2022-07-03T01:31:24;4.65;;;2.20;;
20232;SDS011;37438;55.674;13.074;2022-07-03T01:34:34;6.80;;;2.53;;
20232;SDS011;37438;55.674;13.074;2022-07-03T01:37:42;7.80;;;2.85;;
20232;SDS011;37438;55.674;13.074;2022-07-03T01:40:49;7.35;;;2.40;;
20232;SDS011;37438;55.674;13.074;2022-07-03T01:43:59;7.30;;;3.25;;
20232;SDS011;37438;55.674;13.074;2022-07-03T01:47:08;3.90;;;2.03;;
20232;SDS011;37438;55.674;13.074;2022-07-03T01:50:13;6.32;;;2.22;;
20232;SDS011;37438;55.674;13.074;2022-07-03T01:53:19;9.23;;;2.97;;
20232;SDS011;37438;55.674;13.074;2022-07-03T01:56:27;8.02;;;2.95;;
20232;SDS011;37438;55.674;13.074;2022-07-03T01:59:36;4.70;;;2.95;;
20232;SDS011;37438;55.674;13.074;2022-07-03T02:02:52;9.40;;;2.90;;
20232;SDS011;37438;55.674;13.074;2022-07-03T02:06:11;9.35;;;4.18;;
20232;SDS011;37438;55.674;13.074;2022-07-03T02:09:22;6.25;;;4.40;;
20232;SDS011;37438;55.674;13.074;2022-07-03T02:12:38;6.40;;;3.70;;
20232;SDS011;37438;55.674;13.074;2022-07-03T02:15:50;6.40;;;3.72;;
20232;SDS011;37438;55.674;13.074;2022-07-03T02:18:57;8.48;;;4.55;;
20232;SDS011;37438;55.674;13.074;2022-07-03T02:22:09;7.93;;;4.05;;
20232;SDS011;37438;55.674;13.074;2022-07-03T02:25:18;16.92;;;5.85;;
20232;SDS011;37438;55.674;13.074;2022-07-03T02:28:34;6.88;;;4.95;;
20232;SDS011;37438;55.674;13.074;2022-07-03T02:31:44;6.90;;;4.88;;
20232;SDS011;37438;55.674;13.074;2022-07-03T02:34:54;8.68;;;4.35;;
20232;SDS011;37438;55.674;13.074;2022-07-03T02:41:24;13.68;;;5.35;;
20232;SDS011;37438;55.674;13.074;2022-07-03T02:44:42;10.77;;;5.43;;
20232;SDS011;37438;55.674;13.074;2022-07-03T02:51:04;9.93;;;5.30;;
20232;SDS011;37438;55.674;13.074;2022-07-03T02:54:14;13.27;;;6.30;;
20232;SDS011;37438;55.674;13.074;2022-07-03T02:57:19;16.63;;;5.32;;
20232;SDS011;37438;55.674;13.074;2022-07-03T03:00:24;12.70;;;4.82;;
20232;SDS011;37438;55.674;13.074;2022-07-03T03:03:29;10.45;;;5.50;;
20232;SDS011;37438;55.674;13.074;2022-07-03T03:06:35;17.25;;;5.05;;
20232;SDS011;37438;55.674;13.074;2022-07-03T03:09:42;5.18;;;3.75;;
20232;SDS011;37438;55.674;13.074;2022-07-03T03:12:52;7.82;;;4.22;;
20232;SDS011;37438;55.674;13.074;2022-07-03T03:16:09;11.25;;;4.10;;
20232;SDS011;37438;55.674;13.074;2022-07-03T03:19:15;13.82;;;3.97;;
20232;SDS011;37438;55.674;13.074;2022-07-03T03:22:33;11.65;;;3.72;;
20232;SDS011;37438;55.674;13.074;2022-07-03T03:26:10;9.75;;;3.63;;
20232;SDS011;37438;55.674;13.074;2022-07-03T03:29:15;7.88;;;3.13;;
20232;SDS011;37438;55.674;13.074;2022-07-03T03:32:20;9.25;;;3.15;;
20232;SDS011;37438;55.674;13.074;2022-07-03T03:35:26;11.52;;;2.22;;
20232;SDS011;37438;55.674;13.074;2022-07-03T03:41:35;13.20;;;2.30;;
20232;SDS011;37438;55.674;13.074;2022-07-03T03:44:40;17.80;;;2.78;;
20232;SDS011;37438;55.674;13.074;2022-07-03T03:47:44;3.53;;;1.55;;
20232;SDS011;37438;55.674;13.074;2022-07-03T03:50:49;10.60;;;1.65;;
20232;SDS011;37438;55.674;13.074;2022-07-03T03:53:53;9.48;;;1.60;;
20232;SDS011;37438;55.674;13.074;2022-07-03T03:57:13;3.78;;;2.05;;
20232;SDS011;37438;55.674;13.074;2022-07-03T04:00:23;2.55;;;1.00;;
20232;SDS011;37438;55.674;13.074;2022-07-03T04:03:27;3.20;;;1.23;;
20232;SDS011;37438;55.674;13.074;2022-07-03T04:06:34;9.00;;;1.67;;
20232;SDS011;37438;55.674;13.074;2022-07-03T04:15:49;3.50;;;2.00;;
20232;SDS011;37438;55.674;13.074;2022-07-03T04:18:54;9.38;;;1.15;;
20232;SDS011;37438;55.674;13.074;2022-07-03T04:21:58;1.85;;;1.42;;
20232;SDS011;37438;55.674;13.074;2022-07-03T04:25:03;7.22;;;1.15;;
20232;SDS011;37438;55.674;13.074;2022-07-03T04:28:08;8.18;;;1.60;;
20232;SDS011;37438;55.674;13.074;2022-07-03T04:31:28;7.88;;;1.50;;
20232;SDS011;37438;55.674;13.074;2022-07-03T04:34:33;10.10;;;1.65;;
20232;SDS011;37438;55.674;13.074;2022-07-03T04:37:37;4.97;;;0.98;;
20232;SDS011;37438;55.674;13.074;2022-07-03T04:40:42;8.00;;;1.75;;
20232;SDS011;37438;55.674;13.074;2022-07-03T04:46:51;6.05;;;1.58;;
20232;SDS011;37438;55.674;13.074;2022-07-03T04:53:00;6.57;;;1.17;;
20232;SDS011;37438;55.674;13.074;2022-07-03T04:56:04;7.85;;;1.40;;
20232;SDS011;37438;55.674;13.074;2022-07-03T04:59:08;7.20;;;1.05;;
20232;SDS011;37438;55.674;13.074;2022-07-03T05:02:13;3.35;;;1.00;;
20232;SDS011;37438;55.674;13.074;2022-07-03T05:08:22;2.33;;;1.38;;
20232;SDS011;37438;55.674;13.074;2022-07-03T05:11:27;2.97;;;1.05;;
20232;SDS011;37438;55.674;13.074;2022-07-03T05:14:31;5.07;;;1.27;;
20232;SDS011;37438;55.674;13.074;2022-07-03T05:17:36;5.45;;;1.27;;
20232;SDS011;37438;55.674;13.074;2022-07-03T05:20:40;4.45;;;1.10;;
20232;SDS011;37438;55.674;13.074;2022-07-03T05:23:45;3.83;;;1.13;;
20232;SDS011;37438;55.674;13.074;2022-07-03T05:26:50;2.63;;;1.15;;
20232;SDS011;37438;55.674;13.074;2022-07-03T05:29:54;3.30;;;1.45;;
20232;SDS011;37438;55.674;13.074;2022-07-03T05:36:04;3.83;;;1.30;;
20232;SDS011;37438;55.674;13.074;2022-07-03T05:39:08;5.82;;;1.13;;
20232;SDS011;37438;55.674;13.074;2022-07-03T05:42:32;7.68;;;2.38;;
20232;SDS011;37438;55.674;13.074;2022-07-03T05:45:37;8.40;;;1.40;;
20232;SDS011;37438;55.674;13.074;2022-07-03T05:48:41;3.33;;;1.20;;
20232;SDS011;37438;55.674;13.074;2022-07-03T05:51:46;5.43;;;1.20;;
20232;SDS011;37438;55.674;13.074;2022-07-03T05:54:50;7.63;;;1.80;;
20232;SDS011;37438;55.674;13.074;2022-07-03T05:57:55;5.43;;;1.60;;
20232;SDS011;37438;55.674;13.074;2022-07-03T06:01:00;3.40;;;1.95;;
20232;SDS011;37438;55.674;13.074;2022-07-03T06:04:04;5.22;;;1.70;;
20232;SDS011;37438;55.674;13.074;2022-07-03T06:07:09;5.30;;;2.10;;
20232;SDS011;37438;55.674;13.074;2022-07-03T06:10:13;2.75;;;1.58;;
20232;SDS011;37438;55.674;13.074;2022-07-03T06:13:18;5.20;;;1.77;;
20232;SDS011;37438;55.674;13.074;2022-07-03T06:16:23;3.75;;;1.65;;
20232;SDS011;37438;55.674;13.074;2022-07-03T06:19:28;4.30;;;1.40;;
20232;SDS011;37438;55.674;13.074;2022-07-03T06:22:33;6.50;;;1.58;;
20232;SDS011;37438;55.674;13.074;2022-07-03T06:25:38;3.22;;;1.55;;
20232;SDS011;37438;55.674;13.074;2022-07-03T06:28:42;1.25;;;1.15;;
20232;SDS011;37438;55.674;13.074;2022-07-03T06:31:47;5.45;;;1.88;;
20232;SDS011;37438;55.674;13.074;2022-07-03T06:34:52;4.25;;;1.40;;
20232;SDS011;37438;55.674;13.074;2022-07-03T06:38:00;2.47;;;1.77;;
20232;SDS011;37438;55.674;13.074;2022-07-03T06:41:06;3.80;;;1.50;;
20232;SDS011;37438;55.674;13.074;2022-07-03T06:44:10;2.22;;;1.63;;
20232;SDS011;37438;55.674;13.074;2022-07-03T06:47:14;5.15;;;1.50;;
20232;SDS011;37438;55.674;13.074;2022-07-03T06:50:19;4.00;;;1.55;;
20232;SDS011;37438;55.674;13.074;2022-07-03T06:53:23;4.22;;;1.77;;
20232;SDS011;37438;55.674;13.074;2022-07-03T06:56:28;2.97;;;1.40;;
20232;SDS011;37438;55.674;13.074;2022-07-03T06:59:33;4.88;;;1.90;;
20232;SDS011;37438;55.674;13.074;2022-07-03T07:02:37;2.95;;;2.13;;
20232;SDS011;37438;55.674;13.074;2022-07-03T07:05:42;3.67;;;1.50;;
20232;SDS011;37438;55.674;13.074;2022-07-03T07:08:46;4.82;;;1.88;;
20232;SDS011;37438;55.674;13.074;2022-07-03T07:11:51;4.00;;;2.13;;
20232;SDS011;37438;55.674;13.074;2022-07-03T07:14:55;1.58;;;1.33;;
20232;SDS011;37438;55.674;13.074;2022-07-03T07:17:59;3.30;;;1.35;;
20232;SDS011;37438;55.674;13.074;2022-07-03T07:21:04;2.55;;;1.52;;
20232;SDS011;37438;55.674;13.074;2022-07-03T07:24:08;1.80;;;1.02;;
20232;SDS011;37438;55.674;13.074;2022-07-03T07:27:13;1.80;;;1.42;;
20232;SDS011;37438;55.674;13.074;2022-07-03T07:30:18;4.93;;;1.30;;
20232;SDS011;37438;55.674;13.074;2022-07-03T07:33:23;4.03;;;1.85;;
20232;SDS011;37438;55.674;13.074;2022-07-03T07:36:27;2.35;;;1.42;;
20232;SDS011;37438;55.674;13.074;2022-07-03T07:39:32;4.20;;;1.40;;
20232;SDS011;37438;55.674;13.074;2022-07-03T07:42:36;2.67;;;1.50;;
20232;SDS011;37438;55.674;13.074;2022-07-03T07:45:41;2.53;;;1.52;;
20232;SDS011;37438;55.674;13.074;2022-07-03T07:48:46;1.92;;;1.58;;
20232;SDS011;37438;55.674;13.074;2022-07-03T07:51:51;7.60;;;1.77;;
20232;SDS011;37438;55.674;13.074;2022-07-03T07:54:55;3.83;;;1.73;;
20232;SDS011;37438;55.674;13.074;2022-07-03T07:58:00;1.33;;;1.10;;
20232;SDS011;37438;55.674;13.074;2022-07-03T08:01:04;2.17;;;1.10;;
20232;SDS011;37438;55.674;13.074;2022-07-03T08:04:27;4.55;;;1.20;;
20232;SDS011;37438;55.674;13.074;2022-07-03T08:07:50;4.53;;;1.23;;
20232;SDS011;37438;55.674;13.074;2022-07-03T08:10:55;2.35;;;1.58;;
20232;SDS011;37438;55.674;13.074;2022-07-03T08:14:00;5.95;;;1.88;;
20232;SDS011;37438;55.674;13.074;2022-07-03T08:17:05;4.47;;;1.65;;
20232;SDS011;37438;55.674;13.074;2022-07-03T08:20:10;1.90;;;1.20;;
20232;SDS011;37438;55.674;13.074;2022-07-03T08:23:15;3.03;;;1.52;;
20232;SDS011;37438;55.674;13.074;2022-07-03T08:26:19;5.15;;;1.27;;
20232;SDS011;37438;55.674;13.074;2022-07-03T08:29:24;3.30;;;1.60;;
20232;SDS011;37438;55.674;13.074;2022-07-03T08:32:29;7.93;;;1.67;;
20232;SDS011;37438;55.674;13.074;2022-07-03T08:35:33;2.45;;;1.38;;
20232;SDS011;37438;55.674;13.074;2022-07-03T08:38:38;3.42;;;1.60;;
20232;SDS011;37438;55.674;13.074;2022-07-03T08:41:43;1.80;;;1.27;;
20232;SDS011;37438;55.674;13.074;2022-07-03T08:44:48;1.48;;;1.20;;
20232;SDS011;37438;55.674;13.074;2022-07-03T08:47:57;3.38;;;1.40;;
20232;SDS011;37438;55.674;13.074;2022-07-03T08:51:03;3.40;;;1.38;;
20232;SDS011;37438;55.674;13.074;2022-07-03T08:54:07;3.63;;;1.20;;
20232;SDS011;37438;55.674;13.074;2022-07-03T08:57:12;5.28;;;1.50;;
20232;SDS011;37438;55.674;13.074;2022-07-03T09:00:18;2.70;;;0.93;;
20232;SDS011;37438;55.674;13.074;2022-07-03T09:03:22;4.72;;;1.67;;
20232;SDS011;37438;55.674;13.074;2022-07-03T09:06:29;4.60;;;1.45;;
20232;SDS011;37438;55.674;13.074;2022-07-03T09:09:38;4.22;;;1.35;;
20232;SDS011;37438;55.674;13.074;2022-07-03T09:12:44;4.88;;;1.67;;
20232;SDS011;37438;55.674;13.074;2022-07-03T09:15:50;2.00;;;1.20;;
20232;SDS011;37438;55.674;13.074;2022-07-03T09:18:54;2.80;;;1.20;;
20232;SDS011;37438;55.674;13.074;2022-07-03T09:22:10;1.98;;;1.55;;
20232;SDS011;37438;55.674;13.074;2022-07-03T09:25:24;2.90;;;1.60;;
20232;SDS011;37438;55.674;13.074;2022-07-03T09:31:55;2.35;;;1.25;;
20232;SDS011;37438;55.674;13.074;2022-07-03T09:35:09;3.88;;;1.60;;
20232;SDS011;37438;55.674;13.074;2022-07-03T09:38:24;8.40;;;2.03;;
20232;SDS011;37438;55.674;13.074;2022-07-03T09:41:28;4.25;;;2.05;;
20232;SDS011;37438;55.674;13.074;2022-07-03T09:44:43;5.95;;;1.17;;
20232;SDS011;37438;55.674;13.074;2022-07-03T09:47:52;4.15;;;1.40;;
20232;SDS011;37438;55.674;13.074;2022-07-03T09:51:21;2.50;;;1.25;;
20232;SDS011;37438;55.674;13.074;2022-07-03T09:54:32;4.70;;;1.48;;
20232;SDS011;37438;55.674;13.074;2022-07-03T09:57:40;1.88;;;1.33;;
20232;SDS011;37438;55.674;13.074;2022-07-03T10:00:47;2.17;;;1.13;;
20232;SDS011;37438;55.674;13.074;2022-07-03T10:03:51;3.03;;;1.63;;
20232;SDS011;37438;55.674;13.074;2022-07-03T10:06:58;2.38;;;1.23;;
20232;SDS011;37438;55.674;13.074;2022-07-03T10:10:03;3.72;;;1.40;;
20232;SDS011;37438;55.674;13.074;2022-07-03T10:13:08;11.63;;;1.40;;
20232;SDS011;37438;55.674;13.074;2022-07-03T10:16:14;2.03;;;1.52;;
20232;SDS011;37438;55.674;13.074;2022-07-03T10:19:23;1.15;;;1.02;;
20232;SDS011;37438;55.674;13.074;2022-07-03T10:22:30;4.10;;;1.45;;
20232;SDS011;37438;55.674;13.074;2022-07-03T10:25:40;2.20;;;1.17;;
20232;SDS011;37438;55.674;13.074;2022-07-03T10:28:46;5.10;;;1.25;;
20232;SDS011;37438;55.674;13.074;2022-07-03T10:31:51;6.65;;;1.88;;
20232;SDS011;37438;55.674;13.074;2022-07-03T10:34:55;3.38;;;1.17;;
20232;SDS011;37438;55.674;13.074;2022-07-03T10:41:06;1.90;;;1.10;;
20232;SDS011;37438;55.674;13.074;2022-07-03T10:44:51;3.47;;;1.58;;
20232;SDS011;37438;55.674;13.074;2022-07-03T10:48:16;4.50;;;1.10;;
20232;SDS011;37438;55.674;13.074;2022-07-03T10:51:21;3.83;;;1.60;;
20232;SDS011;37438;55.674;13.074;2022-07-03T10:54:30;5.50;;;1.20;;
20232;SDS011;37438;55.674;13.074;2022-07-03T10:57:40;1.25;;;1.20;;
20232;SDS011;37438;55.674;13.074;2022-07-03T11:00:53;3.83;;;1.00;;
20232;SDS011;37438;55.674;13.074;2022-07-03T11:04:00;4.63;;;1.27;;
20232;SDS011;37438;55.674;13.074;2022-07-03T11:13:15;1.92;;;1.20;;
20232;SDS011;37438;55.674;13.074;2022-07-03T11:16:21;3.08;;;1.27;;
20232;SDS011;37438;55.674;13.074;2022-07-03T11:19:33;2.85;;;1.55;;
20232;SDS011;37438;55.674;13.074;2022-07-03T11:22:59;3.33;;;0.85;;
20232;SDS011;37438;55.674;13.074;2022-07-03T11:29:27;8.00;;;1.02;;
20232;SDS011;37438;55.674;13.074;2022-07-03T11:32:42;1.80;;;0.95;;
20232;SDS011;37438;55.674;13.074;2022-07-03T11:35:53;3.17;;;0.63;;
20232;SDS011;37438;55.674;13.074;2022-07-03T11:42:02;2.40;;;0.80;;
20232;SDS011;37438;55.674;13.074;2022-07-03T11:45:07;1.67;;;1.23;;
20232;SDS011;37438;55.674;13.074;2022-07-03T11:48:14;1.90;;;1.08;;
20232;SDS011;37438;55.674;13.074;2022-07-03T11:51:19;1.05;;;0.85;;
20232;SDS011;37438;55.674;13.074;2022-07-03T11:54:24;3.55;;;1.13;;
20232;SDS011;37438;55.674;13.074;2022-07-03T11:57:30;1.70;;;0.82;;
20232;SDS011;37438;55.674;13.074;2022-07-03T12:00:35;1.20;;;0.75;;
20232;SDS011;37438;55.674;13.074;2022-07-03T12:03:39;1.08;;;0.50;;
20232;SDS011;37438;55.674;13.074;2022-07-03T12:06:48;1.63;;;0.70;;
20232;SDS011;37438;55.674;13.074;2022-07-03T12:09:56;5.18;;;0.80;;
20232;SDS011;37438;55.674;13.074;2022-07-03T12:13:00;4.25;;;0.90;;
20232;SDS011;37438;55.674;13.074;2022-07-03T12:16:06;2.83;;;1.30;;
20232;SDS011;37438;55.674;13.074;2022-07-03T12:19:12;2.05;;;0.70;;
20232;SDS011;37438;55.674;13.074;2022-07-03T12:22:33;3.03;;;0.82;;
20232;SDS011;37438;55.674;13.074;2022-07-03T12:25:41;1.58;;;0.50;;
20232;SDS011;37438;55.674;13.074;2022-07-03T12:28:46;3.45;;;0.73;;
20232;SDS011;37438;55.674;13.074;2022-07-03T12:31:50;4.80;;;1.10;;
20232;SDS011;37438;55.674;13.074;2022-07-03T12:34:56;1.15;;;0.40;;
20232;SDS011;37438;55.674;13.074;2022-07-03T12:38:01;1.13;;;0.43;;
20232;SDS011;37438;55.674;13.074;2022-07-03T12:41:06;2.05;;;0.80;;
20232;SDS011;37438;55.674;13.074;2022-07-03T12:44:12;1.45;;;1.00;;
20232;SDS011;37438;55.674;13.074;2022-07-03T12:47:22;1.85;;;0.68;;
20232;SDS011;37438;55.674;13.074;2022-07-03T12:50:42;1.33;;;0.80;;
20232;SDS011;37438;55.674;13.074;2022-07-03T12:53:54;4.85;;;0.80;;
20232;SDS011;37438;55.674;13.074;2022-07-03T12:57:06;5.30;;;1.17;;
20232;SDS011;37438;55.674;13.074;2022-07-03T13:00:29;1.80;;;0.90;;
20232;SDS011;37438;55.674;13.074;2022-07-03T13:03:48;1.42;;;0.85;;
20232;SDS011;37438;55.674;13.074;2022-07-03T13:07:04;1.20;;;0.77;;
20232;SDS011;37438;55.674;13.074;2022-07-03T13:10:10;5.65;;;0.73;;
20232;SDS011;37438;55.674;13.074;2022-07-03T13:13:15;1.00;;;0.57;;
20232;SDS011;37438;55.674;13.074;2022-07-03T13:16:26;1.95;;;1.05;;
20232;SDS011;37438;55.674;13.074;2022-07-03T13:19:31;1.48;;;0.50;;
20232;SDS011;37438;55.674;13.074;2022-07-03T13:22:35;0.57;;;0.57;;
20232;SDS011;37438;55.674;13.074;2022-07-03T13:25:40;4.03;;;1.02;;
20232;SDS011;37438;55.674;13.074;2022-07-03T13:28:46;1.92;;;1.27;;
20232;SDS011;37438;55.674;13.074;2022-07-03T13:31:51;3.45;;;1.27;;
20232;SDS011;37438;55.674;13.074;2022-07-03T13:34:56;2.50;;;0.90;;
20232;SDS011;37438;55.674;13.074;2022-07-03T13:38:00;0.80;;;0.75;;
20232;SDS011;37438;55.674;13.074;2022-07-03T13:41:04;1.55;;;1.00;;
20232;SDS011;37438;55.674;13.074;2022-07-03T13:44:09;1.58;;;1.00;;
20232;SDS011;37438;55.674;13.074;2022-07-03T13:47:13;2.45;;;1.08;;
20232;SDS011;37438;55.674;13.074;2022-07-03T13:50:17;4.05;;;1.13;;
20232;SDS011;37438;55.674;13.074;2022-07-03T13:53:22;1.65;;;0.85;;
20232;SDS011;37438;55.674;13.074;2022-07-03T13:56:26;1.42;;;1.27;;
20232;SDS011;37438;55.674;13.074;2022-07-03T13:59:31;0.93;;;0.90;;
20232;SDS011;37438;55.674;13.074;2022-07-03T14:02:35;7.10;;;1.10;;
20232;SDS011;37438;55.674;13.074;2022-07-03T14:05:41;2.53;;;1.55;;
20232;SDS011;37438;55.674;13.074;2022-07-03T14:08:45;2.35;;;1.23;;
20232;SDS011;37438;55.674;13.074;2022-07-03T14:11:50;2.67;;;1.00;;
20232;SDS011;37438;55.674;13.074;2022-07-03T14:14:55;2.92;;;1.10;;
20232;SDS011;37438;55.674;13.074;2022-07-03T14:18:00;2.13;;;1.25;;
20232;SDS011;37438;55.674;13.074;2022-07-03T14:21:06;0.80;;;0.80;;
20232;SDS011;37438;55.674;13.074;2022-07-03T14:24:10;1.77;;;1.05;;
20232;SDS011;37438;55.674;13.074;2022-07-03T14:27:15;3.30;;;1.33;;
20232;SDS011;37438;55.674;13.074;2022-07-03T14:30:38;1.42;;;1.05;;
20232;SDS011;37438;55.674;13.074;2022-07-03T14:34:01;2.40;;;0.80;;
20232;SDS011;37438;55.674;13.074;2022-07-03T14:37:05;2.00;;;1.30;;
20232;SDS011;37438;55.674;13.074;2022-07-03T14:40:11;7.13;;;1.10;;
20232;SDS011;37438;55.674;13.074;2022-07-03T14:43:17;2.33;;;1.33;;
20232;SDS011;37438;55.674;13.074;2022-07-03T14:46:22;0.95;;;0.90;;
20232;SDS011;37438;55.674;13.074;2022-07-03T14:49:26;1.63;;;1.10;;
20232;SDS011;37438;55.674;13.074;2022-07-03T14:52:31;1.10;;;1.02;;
20232;SDS011;37438;55.674;13.074;2022-07-03T14:55:36;1.33;;;1.00;;
20232;SDS011;37438;55.674;13.074;2022-07-03T14:58:43;3.47;;;1.38;;
20232;SDS011;37438;55.674;13.074;2022-07-03T15:01:50;4.72;;;1.30;;
20232;SDS011;37438;55.674;13.074;2022-07-03T15:05:07;2.17;;;0.85;;
20232;SDS011;37438;55.674;13.074;2022-07-03T15:15:10;2.00;;;1.30;;
20232;SDS011;37438;55.674;13.074;2022-07-03T15:18:17;2.33;;;1.25;;
20232;SDS011;37438;55.674;13.074;2022-07-03T15:21:24;2.05;;;0.80;;
20232;SDS011;37438;55.674;13.074;2022-07-03T15:24:32;2.35;;;1.13;;
20232;SDS011;37438;55.674;13.074;2022-07-03T15:27:46;1.92;;;1.30;;
20232;SDS011;37438;55.674;13.074;2022-07-03T15:30:55;2.28;;;1.10;;
20232;SDS011;37438;55.674;13.074;2022-07-03T15:34:03;4.63;;;1.10;;
20232;SDS011;37438;55.674;13.074;2022-07-03T15:40:34;4.45;;;1.10;;
20232;SDS011;37438;55.674;13.074;2022-07-03T15:53:40;0.82;;;0.82;;
20232;SDS011;37438;55.674;13.074;2022-07-03T15:56:47;3.55;;;1.48;;
20232;SDS011;37438;55.674;13.074;2022-07-03T16:00:07;3.25;;;1.20;;
20232;SDS011;37438;55.674;13.074;2022-07-03T16:06:25;4.63;;;1.23;;
20232;SDS011;37438;55.674;13.074;2022-07-03T16:09:31;2.47;;;1.00;;
20232;SDS011;37438;55.674;13.074;2022-07-03T16:12:36;5.13;;;0.80;;
20232;SDS011;37438;55.674;13.074;2022-07-03T16:15:42;4.25;;;1.15;;
20232;SDS011;37438;55.674;13.074;2022-07-03T16:18:47;1.38;;;1.13;;
20232;SDS011;37438;55.674;13.074;2022-07-03T16:21:54;1.42;;;0.75;;
20232;SDS011;37438;55.674;13.074;2022-07-03T16:24:59;2.47;;;1.00;;
20232;SDS011;37438;55.674;13.074;2022-07-03T16:28:07;1.88;;;0.85;;
20232;SDS011;37438;55.674;13.074;2022-07-03T16:31:13;1.27;;;0.90;;
20232;SDS011;37438;55.674;13.074;2022-07-03T16:34:25;0.70;;;0.68;;
20232;SDS011;37438;55.674;13.074;2022-07-03T16:37:47;1.70;;;0.82;;
20232;SDS011;37438;55.674;13.074;2022-07-03T16:40:57;2.33;;;0.95;;
20232;SDS011;37438;55.674;13.074;2022-07-03T16:44:06;2.88;;;1.02;;
20232;SDS011;37438;55.674;13.074;2022-07-03T16:47:14;1.10;;;0.95;;
20232;SDS011;37438;55.674;13.074;2022-07-03T16:50:20;5.15;;;0.70;;
20232;SDS011;37438;55.674;13.074;2022-07-03T16:53:26;3.95;;;0.65;;
20232;SDS011;37438;55.674;13.074;2022-07-03T16:56:30;4.38;;;1.35;;
20232;SDS011;37438;55.674;13.074;2022-07-03T16:59:36;2.58;;;1.50;;
20232;SDS011;37438;55.674;13.074;2022-07-03T17:02:42;5.32;;;0.80;;
20232;SDS011;37438;55.674;13.074;2022-07-03T17:05:51;1.98;;;0.80;;
20232;SDS011;37438;55.674;13.074;2022-07-03T17:08:57;2.88;;;0.88;;
20232;SDS011;37438;55.674;13.074;2022-07-03T17:12:04;1.13;;;0.60;;
20232;SDS011;37438;55.674;13.074;2022-07-03T17:15:09;3.95;;;0.73;;
20232;SDS011;37438;55.674;13.074;2022-07-03T17:18:16;2.60;;;0.85;;
20232;SDS011;37438;55.674;13.074;2022-07-03T17:21:30;3.78;;;0.82;;
20232;SDS011;37438;55.674;13.074;2022-07-03T17:24:41;6.47;;;1.30;;
20232;SDS011;37438;55.674;13.074;2022-07-03T17:27:50;2.70;;;1.17;;
20232;SDS011;37438;55.674;13.074;2022-07-03T17:31:03;1.92;;;0.93;;
20232;SDS011;37438;55.674;13.074;2022-07-03T17:34:09;2.10;;;0.60;;
20232;SDS011;37438;55.674;13.074;2022-07-03T17:37:15;1.80;;;0.68;;
20232;SDS011;37438;55.674;13.074;2022-07-03T17:40:20;2.05;;;0.60;;
20232;SDS011;37438;55.674;13.074;2022-07-03T17:43:25;7.95;;;1.20;;
20232;SDS011;37438;55.674;13.074;2022-07-03T17:46:31;1.52;;;0.82;;
20232;SDS011;37438;55.674;13.074;2022-07-03T17:49:38;1.50;;;0.65;;
20232;SDS011;37438;55.674;13.074;2022-07-03T17:52:48;1.42;;;0.93;;
20232;SDS011;37438;55.674;13.074;2022-07-03T17:55:55;1.55;;;0.60;;
20232;SDS011;37438;55.674;13.074;2022-07-03T17:59:00;1.75;;;0.80;;
20232;SDS011;37438;55.674;13.074;2022-07-03T18:02:07;3.38;;;1.05;;
20232;SDS011;37438;55.674;13.074;2022-07-03T18:05:15;4.80;;;1.02;;
20232;SDS011;37438;55.674;13.074;2022-07-03T18:14:55;2.78;;;1.40;;
20232;SDS011;37438;55.674;13.074;2022-07-03T18:18:27;4.15;;;1.13;;
20232;SDS011;37438;55.674;13.074;2022-07-03T18:21:39;8.02;;;1.02;;
20232;SDS011;37438;55.674;13.074;2022-07-03T18:24:45;3.38;;;0.93;;
20232;SDS011;37438;55.674;13.074;2022-07-03T18:27:50;2.67;;;0.77;;
20232;SDS011;37438;55.674;13.074;2022-07-03T18:30:55;5.32;;;1.10;;
20232;SDS011;37438;55.674;13.074;2022-07-03T18:34:01;1.10;;;0.60;;
20232;SDS011;37438;55.674;13.074;2022-07-03T18:37:11;4.45;;;0.68;;
20232;SDS011;37438;55.674;13.074;2022-07-03T18:40:16;6.63;;;1.33;;
20232;SDS011;37438;55.674;13.074;2022-07-03T18:43:21;3.67;;;1.10;;
20232;SDS011;37438;55.674;13.074;2022-07-03T18:46:26;5.70;;;1.45;;
20232;SDS011;37438;55.674;13.074;2022-07-03T18:49:31;3.63;;;1.50;;
20232;SDS011;37438;55.674;13.074;2022-07-03T18:52:39;4.97;;;1.30;;
20232;SDS011;37438;55.674;13.074;2022-07-03T18:55:51;4.63;;;1.43;;
20232;SDS011;37438;55.674;13.074;2022-07-03T18:59:00;1.67;;;1.00;;
20232;SDS011;37438;55.674;13.074;2022-07-03T19:02:17;2.83;;;0.80;;
20232;SDS011;37438;55.674;13.074;2022-07-03T19:12:08;1.25;;;0.82;;
20232;SDS011;37438;55.674;13.074;2022-07-03T19:15:22;5.43;;;1.33;;
20232;SDS011;37438;55.674;13.074;2022-07-03T19:18:32;6.43;;;1.70;;
20232;SDS011;37438;55.674;13.074;2022-07-03T19:21:36;4.88;;;1.70;;
20232;SDS011;37438;55.674;13.074;2022-07-03T19:24:41;5.45;;;1.90;;
20232;SDS011;37438;55.674;13.074;2022-07-03T19:27:46;5.53;;;1.60;;
20232;SDS011;37438;55.674;13.074;2022-07-03T19:30:51;7.13;;;2.22;;
20232;SDS011;37438;55.674;13.074;2022-07-03T19:33:57;6.65;;;2.38;;
20232;SDS011;37438;55.674;13.074;2022-07-03T19:37:02;6.13;;;2.42;;
20232;SDS011;37438;55.674;13.074;2022-07-03T19:40:07;5.18;;;2.20;;
20232;SDS011;37438;55.674;13.074;2022-07-03T19:43:11;3.55;;;1.60;;
20232;SDS011;37438;55.674;13.074;2022-07-03T19:46:19;4.63;;;1.92;;
20232;SDS011;37438;55.674;13.074;2022-07-03T19:49:24;2.28;;;0.90;;
20232;SDS011;37438;55.674;13.074;2022-07-03T19:52:30;7.20;;;1.45;;
20232;SDS011;37438;55.674;13.074;2022-07-03T19:55:34;4.25;;;0.93;;
20232;SDS011;37438;55.674;13.074;2022-07-03T19:58:39;2.13;;;0.70;;
20232;SDS011;37438;55.674;13.074;2022-07-03T20:01:43;1.80;;;1.10;;
20232;SDS011;37438;55.674;13.074;2022-07-03T20:07:53;2.95;;;1.08;;
20232;SDS011;37438;55.674;13.074;2022-07-03T20:14:02;2.65;;;1.20;;
20232;SDS011;37438;55.674;13.074;2022-07-03T20:17:06;3.40;;;1.67;;
20232;SDS011;37438;55.674;13.074;2022-07-03T20:23:15;3.58;;;1.63;;